sensor_id;sensor_type;location;lat;lon;timestamp;temperature;humidity
20590;DHT22;10453;50.810;12.540;2022-09-21T00:03:18;8.20;99.90
20590;DHT22;10453;50.810;12.540;2022-09-21T00:07:36;8.30;99.90
20590;DHT22;10453;50.810;12.540;2022-09-21T00:11:53;8.20;99.90
20590;DHT22;10453;50.810;12.540;2022-09-21T00:16:14;8.20;99.90
20590;DHT22;10453;50.810;12.540;2022-09-21T00:20:33;8.20;99.90
20590;DHT22;10453;50.810;12.540;2022-09-21T00:24:50;8.20;99.90
20590;DHT22;10453;50.810;12.540;2022-09-21T00:29:08;8.10;99.90
20590;DHT22;10453;50.810;12.540;2022-09-21T00:33:26;8.10;99.90
20590;DHT22;10453;50.810;12.540;2022-09-21T00:37:43;8.10;99.90
20590;DHT22;10453;50.810;12.540;2022-09-21T00:42:01;8.10;99.90
20590;DHT22;10453;50.810;12.540;2022-09-21T00:46:28;8.10;99.90
20590;DHT22;10453;50.810;12.540;2022-09-21T00:50:51;8.10;99.90
20590;DHT22;10453;50.810;12.540;2022-09-21T00:55:21;8.10;99.90
20590;DHT22;10453;50.810;12.540;2022-09-21T00:59:42;8.10;99.90
20590;DHT22;10453;50.810;12.540;2022-09-21T01:04:01;8.20;99.90
20590;DHT22;10453;50.810;12.540;2022-09-21T01:08:19;8.20;99.90
20590;DHT22;10453;50.810;12.540;2022-09-21T01:12:46;8.30;99.90
20590;DHT22;10453;50.810;12.540;2022-09-21T01:17:16;8.30;99.90
20590;DHT22;10453;50.810;12.540;2022-09-21T01:21:51;8.30;99.90
20590;DHT22;10453;50.810;12.540;2022-09-21T01:30:51;8.30;99.90
20590;DHT22;10453;50.810;12.540;2022-09-21T01:39:28;8.30;99.90
20590;DHT22;10453;50.810;12.540;2022-09-21T01:43:55;8.30;99.90
20590;DHT22;10453;50.810;12.540;2022-09-21T01:48:14;8.30;99.90
20590;DHT22;10453;50.810;12.540;2022-09-21T01:52:43;8.30;99.90
20590;DHT22;10453;50.810;12.540;2022-09-21T02:01:50;8.20;99.90
20590;DHT22;10453;50.810;12.540;2022-09-21T02:06:10;8.20;99.90
20590;DHT22;10453;50.810;12.540;2022-09-21T02:10:36;8.20;99.90
20590;DHT22;10453;50.810;12.540;2022-09-21T02:14:56;8.30;99.90
20590;DHT22;10453;50.810;12.540;2022-09-21T02:19:20;8.20;99.90
20590;DHT22;10453;50.810;12.540;2022-09-21T02:24:04;8.20;99.90
20590;DHT22;10453;50.810;12.540;2022-09-21T02:28:36;8.10;99.90
20590;DHT22;10453;50.810;12.540;2022-09-21T02:33:15;8.10;99.90
20590;DHT22;10453;50.810;12.540;2022-09-21T02:38:05;7.90;99.90
20590;DHT22;10453;50.810;12.540;2022-09-21T02:42:28;7.90;99.90
20590;DHT22;10453;50.810;12.540;2022-09-21T02:46:52;7.70;99.90
20590;DHT22;10453;50.810;12.540;2022-09-21T02:51:14;7.60;99.90
20590;DHT22;10453;50.810;12.540;2022-09-21T02:55:33;7.50;99.90
20590;DHT22;10453;50.810;12.540;2022-09-21T02:59:51;7.40;99.90
20590;DHT22;10453;50.810;12.540;2022-09-21T03:04:09;7.30;99.90
20590;DHT22;10453;50.810;12.540;2022-09-21T03:08:27;7.20;99.90
20590;DHT22;10453;50.810;12.540;2022-09-21T03:12:44;7.10;99.90
20590;DHT22;10453;50.810;12.540;2022-09-21T03:17:03;7.00;99.90
20590;DHT22;10453;50.810;12.540;2022-09-21T03:21:20;6.90;99.90
20590;DHT22;10453;50.810;12.540;2022-09-21T03:25:38;6.90;99.90
20590;DHT22;10453;50.810;12.540;2022-09-21T03:29:55;6.90;99.90
20590;DHT22;10453;50.810;12.540;2022-09-21T03:34:17;6.90;99.90
20590;DHT22;10453;50.810;12.540;2022-09-21T03:38:35;6.80;99.90
20590;DHT22;10453;50.810;12.540;2022-09-21T03:42:53;6.50;99.90
20590;DHT22;10453;50.810;12.540;2022-09-21T03:47:11;6.40;99.90
20590;DHT22;10453;50.810;12.540;2022-09-21T03:51:28;6.30;99.90
20590;DHT22;10453;50.810;12.540;2022-09-21T03:55:47;6.20;99.90
20590;DHT22;10453;50.810;12.540;2022-09-21T04:00:07;6.20;99.90
20590;DHT22;10453;50.810;12.540;2022-09-21T04:04:26;6.10;99.90
20590;DHT22;10453;50.810;12.540;2022-09-21T04:08:45;6.30;99.90
20590;DHT22;10453;50.810;12.540;2022-09-21T04:13:02;6.20;99.90
20590;DHT22;10453;50.810;12.540;2022-09-21T04:17:20;6.10;99.90
20590;DHT22;10453;50.810;12.540;2022-09-21T04:21:38;5.90;99.90
20590;DHT22;10453;50.810;12.540;2022-09-21T04:25:55;5.70;99.90
20590;DHT22;10453;50.810;12.540;2022-09-21T04:30:15;5.70;99.90
20590;DHT22;10453;50.810;12.540;2022-09-21T04:34:32;5.60;99.90
20590;DHT22;10453;50.810;12.540;2022-09-21T04:38:50;5.50;99.90
20590;DHT22;10453;50.810;12.540;2022-09-21T04:43:08;5.40;99.90
20590;DHT22;10453;50.810;12.540;2022-09-21T04:47:27;5.40;99.90
20590;DHT22;10453;50.810;12.540;2022-09-21T04:51:45;5.50;99.90
20590;DHT22;10453;50.810;12.540;2022-09-21T04:56:04;5.40;99.90
20590;DHT22;10453;50.810;12.540;2022-09-21T05:00:22;5.40;99.90
20590;DHT22;10453;50.810;12.540;2022-09-21T05:04:42;5.30;99.90
20590;DHT22;10453;50.810;12.540;2022-09-21T05:09:07;5.30;99.90
20590;DHT22;10453;50.810;12.540;2022-09-21T05:13:44;5.40;99.90
20590;DHT22;10453;50.810;12.540;2022-09-21T05:18:02;5.40;99.90
20590;DHT22;10453;50.810;12.540;2022-09-21T05:22:21;5.40;99.90
20590;DHT22;10453;50.810;12.540;2022-09-21T05:26:38;5.50;99.90
20590;DHT22;10453;50.810;12.540;2022-09-21T05:35:56;5.40;99.90
20590;DHT22;10453;50.810;12.540;2022-09-21T05:40:15;5.40;99.90
20590;DHT22;10453;50.810;12.540;2022-09-21T05:44:33;5.40;99.90
20590;DHT22;10453;50.810;12.540;2022-09-21T05:48:59;5.50;99.90
20590;DHT22;10453;50.810;12.540;2022-09-21T05:53:45;5.50;99.90
20590;DHT22;10453;50.810;12.540;2022-09-21T05:58:21;5.70;99.90
20590;DHT22;10453;50.810;12.540;2022-09-21T06:07:06;6.00;99.90
20590;DHT22;10453;50.810;12.540;2022-09-21T06:11:23;6.10;99.90
20590;DHT22;10453;50.810;12.540;2022-09-21T06:15:43;6.30;99.90
20590;DHT22;10453;50.810;12.540;2022-09-21T06:20:01;6.50;99.90
20590;DHT22;10453;50.810;12.540;2022-09-21T06:24:19;6.60;99.90
20590;DHT22;10453;50.810;12.540;2022-09-21T06:28:36;6.80;99.90
20590;DHT22;10453;50.810;12.540;2022-09-21T06:32:53;7.00;99.90
20590;DHT22;10453;50.810;12.540;2022-09-21T06:37:14;7.10;99.90
20590;DHT22;10453;50.810;12.540;2022-09-21T06:41:31;7.20;99.90
20590;DHT22;10453;50.810;12.540;2022-09-21T06:45:53;7.20;99.90
20590;DHT22;10453;50.810;12.540;2022-09-21T06:50:11;7.30;99.90
20590;DHT22;10453;50.810;12.540;2022-09-21T06:54:28;7.40;99.90
20590;DHT22;10453;50.810;12.540;2022-09-21T06:58:46;7.50;99.90
20590;DHT22;10453;50.810;12.540;2022-09-21T07:03:04;7.60;99.90
20590;DHT22;10453;50.810;12.540;2022-09-21T07:07:21;7.60;99.90
20590;DHT22;10453;50.810;12.540;2022-09-21T07:11:39;7.80;99.90
20590;DHT22;10453;50.810;12.540;2022-09-21T07:16:01;7.90;99.90
20590;DHT22;10453;50.810;12.540;2022-09-21T07:20:19;8.00;99.90
20590;DHT22;10453;50.810;12.540;2022-09-21T07:24:36;8.10;99.90
20590;DHT22;10453;50.810;12.540;2022-09-21T07:28:54;8.30;99.90
20590;DHT22;10453;50.810;12.540;2022-09-21T07:33:11;8.40;99.90
20590;DHT22;10453;50.810;12.540;2022-09-21T07:37:30;8.70;99.90
20590;DHT22;10453;50.810;12.540;2022-09-21T07:41:49;8.70;99.90
20590;DHT22;10453;50.810;12.540;2022-09-21T07:46:07;9.10;99.90
20590;DHT22;10453;50.810;12.540;2022-09-21T07:50:26;9.20;99.90
20590;DHT22;10453;50.810;12.540;2022-09-21T07:54:43;9.50;99.90
20590;DHT22;10453;50.810;12.540;2022-09-21T07:59:01;9.80;99.90
20590;DHT22;10453;50.810;12.540;2022-09-21T08:03:22;10.00;99.90
20590;DHT22;10453;50.810;12.540;2022-09-21T08:07:39;10.40;99.90
20590;DHT22;10453;50.810;12.540;2022-09-21T08:11:56;10.70;99.90
20590;DHT22;10453;50.810;12.540;2022-09-21T08:16:14;10.80;99.90
20590;DHT22;10453;50.810;12.540;2022-09-21T08:20:32;11.00;99.90
20590;DHT22;10453;50.810;12.540;2022-09-21T08:24:50;11.40;99.90
20590;DHT22;10453;50.810;12.540;2022-09-21T08:29:08;11.50;99.90
20590;DHT22;10453;50.810;12.540;2022-09-21T08:33:26;11.60;99.90
20590;DHT22;10453;50.810;12.540;2022-09-21T08:37:46;11.90;99.90
20590;DHT22;10453;50.810;12.540;2022-09-21T08:42:13;12.00;99.90
20590;DHT22;10453;50.810;12.540;2022-09-21T08:46:37;12.00;99.90
20590;DHT22;10453;50.810;12.540;2022-09-21T08:50:58;12.50;99.90
20590;DHT22;10453;50.810;12.540;2022-09-21T08:55:19;13.00;99.90
20590;DHT22;10453;50.810;12.540;2022-09-21T08:59:40;13.00;99.90
20590;DHT22;10453;50.810;12.540;2022-09-21T09:04:53;12.90;99.90
20590;DHT22;10453;50.810;12.540;2022-09-21T09:18:22;13.40;99.90
20590;DHT22;10453;50.810;12.540;2022-09-21T09:23:03;14.00;99.90
20590;DHT22;10453;50.810;12.540;2022-09-21T09:27:29;14.80;99.90
20590;DHT22;10453;50.810;12.540;2022-09-21T09:31:49;15.10;99.90
20590;DHT22;10453;50.810;12.540;2022-09-21T09:36:08;16.20;99.90
20590;DHT22;10453;50.810;12.540;2022-09-21T09:40:32;16.60;99.90
20590;DHT22;10453;50.810;12.540;2022-09-21T09:54:19;18.00;99.90
20590;DHT22;10453;50.810;12.540;2022-09-21T09:59:15;19.40;99.90
20590;DHT22;10453;50.810;12.540;2022-09-21T10:03:33;17.80;99.90
20590;DHT22;10453;50.810;12.540;2022-09-21T10:07:51;18.70;99.90
20590;DHT22;10453;50.810;12.540;2022-09-21T10:12:24;18.20;99.90
20590;DHT22;10453;50.810;12.540;2022-09-21T10:16:43;18.30;99.90
20590;DHT22;10453;50.810;12.540;2022-09-21T10:25:20;17.80;99.90
20590;DHT22;10453;50.810;12.540;2022-09-21T10:29:43;16.30;99.90
20590;DHT22;10453;50.810;12.540;2022-09-21T10:34:24;15.90;99.90
20590;DHT22;10453;50.810;12.540;2022-09-21T10:38:41;17.50;99.90
20590;DHT22;10453;50.810;12.540;2022-09-21T10:42:59;17.70;99.90
20590;DHT22;10453;50.810;12.540;2022-09-21T10:47:39;16.00;99.90
20590;DHT22;10453;50.810;12.540;2022-09-21T10:51:58;16.60;99.90
20590;DHT22;10453;50.810;12.540;2022-09-21T10:56:17;19.70;99.90
20590;DHT22;10453;50.810;12.540;2022-09-21T11:00:44;17.70;99.90
20590;DHT22;10453;50.810;12.540;2022-09-21T11:05:11;17.50;99.90
20590;DHT22;10453;50.810;12.540;2022-09-21T11:33:28;21.00;83.40
20590;DHT22;10453;50.810;12.540;2022-09-21T11:37:54;18.40;84.00
20590;DHT22;10453;50.810;12.540;2022-09-21T11:47:20;20.50;89.80
20590;DHT22;10453;50.810;12.540;2022-09-21T11:52:06;21.70;82.00
20590;DHT22;10453;50.810;12.540;2022-09-21T11:56:34;21.30;86.70
20590;DHT22;10453;50.810;12.540;2022-09-21T12:15:20;21.80;84.10
20590;DHT22;10453;50.810;12.540;2022-09-21T12:19:47;22.60;78.70
20590;DHT22;10453;50.810;12.540;2022-09-21T12:24:19;20.70;84.10
20590;DHT22;10453;50.810;12.540;2022-09-21T12:28:45;20.30;82.60
20590;DHT22;10453;50.810;12.540;2022-09-21T12:37:58;17.40;83.70
20590;DHT22;10453;50.810;12.540;2022-09-21T12:42:34;19.60;78.80
20590;DHT22;10453;50.810;12.540;2022-09-21T12:46:59;17.60;78.00
20590;DHT22;10453;50.810;12.540;2022-09-21T12:51:35;16.10;85.30
20590;DHT22;10453;50.810;12.540;2022-09-21T13:00:20;14.80;90.50
20590;DHT22;10453;50.810;12.540;2022-09-21T13:04:56;14.70;93.90
20590;DHT22;10453;50.810;12.540;2022-09-21T13:09:16;14.70;96.20
20590;DHT22;10453;50.810;12.540;2022-09-21T13:13:44;17.00;92.90
20590;DHT22;10453;50.810;12.540;2022-09-21T13:18:23;18.90;89.40
20590;DHT22;10453;50.810;12.540;2022-09-21T13:22:44;20.20;83.60
20590;DHT22;10453;50.810;12.540;2022-09-21T13:27:02;18.50;84.80
20590;DHT22;10453;50.810;12.540;2022-09-21T13:31:51;17.10;90.00
20590;DHT22;10453;50.810;12.540;2022-09-21T13:36:32;16.40;91.20
20590;DHT22;10453;50.810;12.540;2022-09-21T13:41:26;16.20;90.10
20590;DHT22;10453;50.810;12.540;2022-09-21T13:46:04;16.10;88.20
20590;DHT22;10453;50.810;12.540;2022-09-21T13:50:28;16.00;89.50
20590;DHT22;10453;50.810;12.540;2022-09-21T13:54:51;15.80;91.10
20590;DHT22;10453;50.810;12.540;2022-09-21T13:59:22;15.60;93.00
20590;DHT22;10453;50.810;12.540;2022-09-21T14:03:44;15.50;91.70
20590;DHT22;10453;50.810;12.540;2022-09-21T14:12:38;15.40;95.10
20590;DHT22;10453;50.810;12.540;2022-09-21T14:17:01;15.40;91.30
20590;DHT22;10453;50.810;12.540;2022-09-21T14:21:21;15.60;92.10
20590;DHT22;10453;50.810;12.540;2022-09-21T14:25:50;15.80;88.80
20590;DHT22;10453;50.810;12.540;2022-09-21T14:30:20;15.40;90.70
20590;DHT22;10453;50.810;12.540;2022-09-21T14:34:40;15.40;92.80
20590;DHT22;10453;50.810;12.540;2022-09-21T14:39:02;15.40;91.80
20590;DHT22;10453;50.810;12.540;2022-09-21T14:43:28;15.40;91.20
20590;DHT22;10453;50.810;12.540;2022-09-21T15:02:01;15.30;93.10
20590;DHT22;10453;50.810;12.540;2022-09-21T15:06:41;15.30;92.50
20590;DHT22;10453;50.810;12.540;2022-09-21T15:11:35;15.40;91.90
20590;DHT22;10453;50.810;12.540;2022-09-21T15:20:29;15.10;92.70
20590;DHT22;10453;50.810;12.540;2022-09-21T15:24:55;15.20;92.60
20590;DHT22;10453;50.810;12.540;2022-09-21T15:29:28;15.00;92.80
20590;DHT22;10453;50.810;12.540;2022-09-21T15:33:48;14.70;94.40
20590;DHT22;10453;50.810;12.540;2022-09-21T15:38:26;14.40;96.80
20590;DHT22;10453;50.810;12.540;2022-09-21T15:43:34;14.30;99.00
20590;DHT22;10453;50.810;12.540;2022-09-21T15:47:45;13.90;99.90
20590;DHT22;10453;50.810;12.540;2022-09-21T15:56:30;13.40;99.90
20590;DHT22;10453;50.810;12.540;2022-09-21T16:00:54;13.30;99.90
20590;DHT22;10453;50.810;12.540;2022-09-21T16:05:13;13.10;99.90
20590;DHT22;10453;50.810;12.540;2022-09-21T16:09:43;13.00;99.90
20590;DHT22;10453;50.810;12.540;2022-09-21T16:14:11;12.90;99.90
20590;DHT22;10453;50.810;12.540;2022-09-21T16:18:51;12.60;99.90
20590;DHT22;10453;50.810;12.540;2022-09-21T16:23:14;12.50;99.90
20590;DHT22;10453;50.810;12.540;2022-09-21T16:27:31;12.40;99.90
20590;DHT22;10453;50.810;12.540;2022-09-21T16:31:49;12.30;99.90
20590;DHT22;10453;50.810;12.540;2022-09-21T16:40:35;11.90;99.90
20590;DHT22;10453;50.810;12.540;2022-09-21T16:44:53;11.70;99.90
20590;DHT22;10453;50.810;12.540;2022-09-21T16:49:12;11.50;99.90
20590;DHT22;10453;50.810;12.540;2022-09-21T16:53:34;11.40;99.90
20590;DHT22;10453;50.810;12.540;2022-09-21T16:57:52;11.20;99.90
20590;DHT22;10453;50.810;12.540;2022-09-21T17:02:10;11.00;99.90
20590;DHT22;10453;50.810;12.540;2022-09-21T17:06:30;10.70;99.90
20590;DHT22;10453;50.810;12.540;2022-09-21T17:10:47;10.60;99.90
20590;DHT22;10453;50.810;12.540;2022-09-21T17:15:05;10.40;99.90
20590;DHT22;10453;50.810;12.540;2022-09-21T17:19:24;10.30;99.90
20590;DHT22;10453;50.810;12.540;2022-09-21T17:23:41;10.10;99.90
20590;DHT22;10453;50.810;12.540;2022-09-21T17:28:00;9.80;99.90
20590;DHT22;10453;50.810;12.540;2022-09-21T17:32:20;9.60;99.90
20590;DHT22;10453;50.810;12.540;2022-09-21T17:36:38;9.50;99.90
20590;DHT22;10453;50.810;12.540;2022-09-21T17:40:56;9.40;99.90
20590;DHT22;10453;50.810;12.540;2022-09-21T17:49:45;9.20;99.90
20590;DHT22;10453;50.810;12.540;2022-09-21T17:54:03;9.10;99.90
20590;DHT22;10453;50.810;12.540;2022-09-21T18:02:54;8.90;99.90
20590;DHT22;10453;50.810;12.540;2022-09-21T18:07:12;8.70;99.90
20590;DHT22;10453;50.810;12.540;2022-09-21T18:21:01;8.40;99.90
20590;DHT22;10453;50.810;12.540;2022-09-21T18:25:35;8.30;99.90
20590;DHT22;10453;50.810;12.540;2022-09-21T18:30:04;8.20;99.90
20590;DHT22;10453;50.810;12.540;2022-09-21T18:43:43;8.00;99.90
20590;DHT22;10453;50.810;12.540;2022-09-21T18:48:21;7.90;99.90
20590;DHT22;10453;50.810;12.540;2022-09-21T18:53:08;7.80;99.90
20590;DHT22;10453;50.810;12.540;2022-09-21T18:57:29;7.80;99.90
20590;DHT22;10453;50.810;12.540;2022-09-21T19:01:50;7.70;99.90
20590;DHT22;10453;50.810;12.540;2022-09-21T19:06:27;7.70;99.90
20590;DHT22;10453;50.810;12.540;2022-09-21T19:11:19;7.70;99.90
20590;DHT22;10453;50.810;12.540;2022-09-21T19:16:03;7.60;99.90
20590;DHT22;10453;50.810;12.540;2022-09-21T19:25:32;7.40;99.90
20590;DHT22;10453;50.810;12.540;2022-09-21T19:30:03;7.20;99.90
20590;DHT22;10453;50.810;12.540;2022-09-21T19:34:21;7.10;99.90
20590;DHT22;10453;50.810;12.540;2022-09-21T19:38:39;7.10;99.90
20590;DHT22;10453;50.810;12.540;2022-09-21T19:47:29;7.10;99.90
20590;DHT22;10453;50.810;12.540;2022-09-21T19:51:49;7.00;99.90
20590;DHT22;10453;50.810;12.540;2022-09-21T19:56:12;7.10;99.90
20590;DHT22;10453;50.810;12.540;2022-09-21T20:00:53;7.10;99.90
20590;DHT22;10453;50.810;12.540;2022-09-21T20:05:19;6.90;99.90
20590;DHT22;10453;50.810;12.540;2022-09-21T20:09:43;6.80;99.90
20590;DHT22;10453;50.810;12.540;2022-09-21T20:14:09;6.80;99.90
20590;DHT22;10453;50.810;12.540;2022-09-21T20:23:13;6.90;99.90
20590;DHT22;10453;50.810;12.540;2022-09-21T20:27:38;7.00;99.90
20590;DHT22;10453;50.810;12.540;2022-09-21T20:31:55;7.00;99.90
20590;DHT22;10453;50.810;12.540;2022-09-21T20:36:16;6.90;99.90
20590;DHT22;10453;50.810;12.540;2022-09-21T20:40:34;6.70;99.90
20590;DHT22;10453;50.810;12.540;2022-09-21T20:44:52;6.80;99.90
20590;DHT22;10453;50.810;12.540;2022-09-21T20:49:13;6.80;99.90
20590;DHT22;10453;50.810;12.540;2022-09-21T20:53:32;6.90;99.90
20590;DHT22;10453;50.810;12.540;2022-09-21T20:57:49;6.70;99.90
20590;DHT22;10453;50.810;12.540;2022-09-21T21:02:11;6.80;99.90
20590;DHT22;10453;50.810;12.540;2022-09-21T21:06:29;6.80;99.90
20590;DHT22;10453;50.810;12.540;2022-09-21T21:10:54;6.70;99.90
20590;DHT22;10453;50.810;12.540;2022-09-21T21:15:11;6.60;99.90
20590;DHT22;10453;50.810;12.540;2022-09-21T21:19:30;6.60;99.90
20590;DHT22;10453;50.810;12.540;2022-09-21T21:23:48;6.60;99.90
20590;DHT22;10453;50.810;12.540;2022-09-21T21:28:24;6.50;99.90
20590;DHT22;10453;50.810;12.540;2022-09-21T21:32:44;6.50;99.90
20590;DHT22;10453;50.810;12.540;2022-09-21T21:37:02;6.40;99.90
20590;DHT22;10453;50.810;12.540;2022-09-21T21:41:19;6.30;99.90
20590;DHT22;10453;50.810;12.540;2022-09-21T21:45:36;6.20;99.90
20590;DHT22;10453;50.810;12.540;2022-09-21T21:49:55;6.20;99.90
20590;DHT22;10453;50.810;12.540;2022-09-21T21:54:12;6.20;99.90
20590;DHT22;10453;50.810;12.540;2022-09-21T21:58:31;6.20;99.90
20590;DHT22;10453;50.810;12.540;2022-09-21T22:02:49;6.00;99.90
20590;DHT22;10453;50.810;12.540;2022-09-21T22:07:07;6.00;99.90
20590;DHT22;10453;50.810;12.540;2022-09-21T22:11:25;6.00;99.90
20590;DHT22;10453;50.810;12.540;2022-09-21T22:15:45;5.90;99.90
20590;DHT22;10453;50.810;12.540;2022-09-21T22:20:04;5.80;99.90
20590;DHT22;10453;50.810;12.540;2022-09-21T22:24:21;5.80;99.90
20590;DHT22;10453;50.810;12.540;2022-09-21T22:28:40;5.80;99.90
20590;DHT22;10453;50.810;12.540;2022-09-21T22:32:57;5.70;99.90
20590;DHT22;10453;50.810;12.540;2022-09-21T22:37:15;5.70;99.90
20590;DHT22;10453;50.810;12.540;2022-09-21T22:41:35;5.70;99.90
20590;DHT22;10453;50.810;12.540;2022-09-21T22:45:53;5.60;99.90
20590;DHT22;10453;50.810;12.540;2022-09-21T22:50:10;5.50;99.90
20590;DHT22;10453;50.810;12.540;2022-09-21T22:54:28;5.50;99.90
20590;DHT22;10453;50.810;12.540;2022-09-21T22:58:47;5.40;99.90
20590;DHT22;10453;50.810;12.540;2022-09-21T23:03:05;5.50;99.90
20590;DHT22;10453;50.810;12.540;2022-09-21T23:07:23;5.40;99.90
20590;DHT22;10453;50.810;12.540;2022-09-21T23:11:42;5.40;99.90
20590;DHT22;10453;50.810;12.540;2022-09-21T23:16:01;5.30;99.90
20590;DHT22;10453;50.810;12.540;2022-09-21T23:20:19;5.30;99.90
20590;DHT22;10453;50.810;12.540;2022-09-21T23:24:36;5.40;99.90
20590;DHT22;10453;50.810;12.540;2022-09-21T23:28:58;5.40;99.90
20590;DHT22;10453;50.810;12.540;2022-09-21T23:33:15;5.20;99.90
20590;DHT22;10453;50.810;12.540;2022-09-21T23:37:34;5.20;99.90
20590;DHT22;10453;50.810;12.540;2022-09-21T23:41:52;5.10;99.90
20590;DHT22;10453;50.810;12.540;2022-09-21T23:46:11;5.20;99.90
20590;DHT22;10453;50.810;12.540;2022-09-21T23:50:28;5.40;99.90
20590;DHT22;10453;50.810;12.540;2022-09-21T23:54:45;5.50;99.90
20590;DHT22;10453;50.810;12.540;2022-09-21T23:59:04;5.60;99.90
